• Join FlightAware (Why Join?)
  • Login
  • US Flag 
01:32AM EDT


 

Airport Tracker/Info


-or-


 

Live Flight TrackerFlight Track Log ✈ EGF3773 ✈ 04-May-2013 ✈ KDEN - KORD

Flight Track Log - Related Links

Times and Time Zones

All times are in EDT time to prevent confusion due to time zone crossing. See the EGF3773 flight status page for this flight to view local times or setup timezone preferences in your user account.

Time Position Orientation Groundspeed Altitude Reporting Facility
EDT Latitude Longitude Course Direction KTS MPH feet Rate Location/Type
08:14PM 39.8833 -104.5500 79° East 197 227 7,800  Level Denver TRACON
08:15PM 39.9000 -104.4667 75° East 244 281 9,100 1,080 Climbing Denver TRACON
08:16PM 39.9215 -104.2458 73° East  Level FlightAware Approximate
08:16PM 39.9167 -104.3833 75° East 273 314 10,000  Level Denver TRACON
08:17PM 39.9534 -104.1076 73° East  Level FlightAware Approximate
08:17PM 39.9294 -104.3472 65° Northeast 276 318 10,300  Level Denver Center
08:18PM 39.9720 -103.9673 66° East  Level FlightAware Approximate
08:18PM 39.9550 -104.2306 74° East 337 388 11,900  Level Denver Center
08:19PM 39.9984 -103.8279 79° East  Level FlightAware Approximate
08:19PM 39.9786 -104.0892 78° East 364 419 14,600  Level Denver Center
08:20PM 40.0284 -103.6850 79° East  Level FlightAware Approximate
08:20PM 39.9967 -103.9256 82° East 379 436 17,300  Level Denver Center
08:21PM 40.0181 -103.7872 79° East 387 445 19,300 1,800 Climbing Denver Center
08:22PM 40.0431 -103.6469 77° East 392 451 21,000 1,680 Climbing Denver Center
08:23PM 40.0644 -103.5228 77° East 411 473 22,800 1,800 Climbing Denver Center
08:24PM 40.0903 -103.3422 79° East 429 494 24,700 1,560 Climbing Denver Center
08:25PM 40.1161 -103.1836 78° East 441 507 26,100 1,320 Climbing Denver Center
08:26PM 40.1428 -103.0208 78° East 454 522 27,400 1,200 Climbing Denver Center
08:27PM 40.1683 -102.8536 79° East 463 533 28,600 1,080 Climbing Denver Center
08:28PM 40.1964 -102.6725 78° East 472 543 29,700 960 Climbing Denver Center
08:29PM 40.2222 -102.5069 78° East 482 555 30,600 900 Climbing Denver Center
08:30PM 40.2519 -102.3117 79° East 489 563 31,600 780 Climbing Denver Center
08:31PM 40.2775 -102.1417 79° East 496 571 32,300 780 Climbing Denver Center
08:32PM 40.3064 -101.9408 79° East 502 578 33,200 780 Climbing Denver Center
08:33PM 40.3322 -101.7711 79° East 499 574 34,000 780 Climbing Denver Center
08:34PM 40.3572 -101.6022 79° East 494 568 34,900 900 Climbing Denver Center
08:35PM 40.3850 -101.4083 79° East 487 560 35,900 900 Climbing Denver Center
08:36PM 40.4086 -101.2419 79° East 486 559 36,800 900 Climbing Denver Center
08:37PM 40.4375 -101.0508 79° East 481 554 37,800 840 Climbing Denver Center
08:38PM 40.4869 -100.9006 67° East 472 543 38,600 540 Climbing Denver Center
08:39PM 40.5475 -100.7283 65° Northeast 469 540 39,000 180 Climbing Denver Center
08:41PM 40.6014 -100.5800 64° Northeast 475 547 39,000  Level Denver Center
08:42PM 40.6642 -100.4033 65° Northeast 481 554 39,000  Level Denver Center
08:43PM 40.7175 -100.2550 65° Northeast 475 547 39,000  Level Denver Center
08:44PM 40.7692 -100.1089 65° Northeast 466 536 39,000  Level Denver Center
08:45PM 40.8281 -99.9394 65° Northeast 458 527 39,000  Level Denver Center
08:46PM 40.8817 -99.7886 65° Northeast 458 527 39,000  Level Denver Center
08:47PM 40.9333 -99.6381 66° East 452 520 39,000  Level Denver Center
08:48PM 40.9856 -99.4886 65° Northeast 448 516 39,000  Level Denver Center
08:49PM 41.0267 -99.3683 66° East 447 514 39,000  Level Denver Center
08:50PM 41.0881 -99.1889 66° East 445 512 39,000  Level Denver Center
08:51PM 41.1494 -99.0075 66° East 444 511 39,000  Level Denver Center
08:52PM 41.2061 -98.8361 66° East 450 518 39,000  Level Denver Center
08:53PM 41.2497 -98.6883 69° East 456 525 39,000  Level Denver Center
08:54PM 41.2767 -98.5356 77° East 451 519 39,000  Level Minneapolis Center
08:55PM 41.3083 -98.3617 76° East 451 519 39,000  Level Minneapolis Center
08:56PM 41.3369 -98.1994 77° East 449 517 39,000  Level Minneapolis Center
08:57PM 41.3633 -98.0506 77° East 449 517 39,000  Level Minneapolis Center
08:58PM 41.3917 -97.8883 77° East 449 517 39,000  Level Minneapolis Center
08:59PM 41.4200 -97.7264 77° East 449 517 39,000  Level Minneapolis Center
09:00PM 41.4533 -97.5331 77° East 447 514 39,000  Level Minneapolis Center
09:02PM 41.5081 -97.2119 77° East 443 510 39,000  Level Minneapolis Center
09:03PM 41.5358 -97.0511 77° East 443 510 39,000  Level Minneapolis Center
09:04PM 41.5608 -96.8906 78° East 441 507 39,000  Level Minneapolis Center
09:05PM 41.5878 -96.7308 77° East 441 507 39,000  Level Minneapolis Center
09:06PM 41.6078 -96.6039 78° East 437 503 39,000  Level Minneapolis Center
09:07PM 41.6392 -96.4131 78° East 434 499 39,000  Level Minneapolis Center
09:08PM 41.6639 -96.2575 78° East 427 491 39,000  Level Minneapolis Center
09:09PM 41.6886 -96.1011 78° East 426 490 39,000  Level Minneapolis Center
09:10PM 41.7119 -95.9447 79° East 424 488 39,000  Level Minneapolis Center
09:11PM 41.7361 -95.7914 78° East 420 483 39,000  Level Minneapolis Center
09:12PM 41.7600 -95.6381 78° East 418 481 39,000  Level Minneapolis Center
09:13PM 41.7831 -95.4847 79° East 418 481 39,000  Level Minneapolis Center
09:14PM 41.8058 -95.3322 79° East 417 480 39,000  Level Minneapolis Center
09:16PM 41.8378 -95.1200 79° East 415 478 39,000  Level Minneapolis Center
09:17PM 41.8600 -94.9681 79° East 415 478 39,000  Level Minneapolis Center
09:18PM 41.8825 -94.8136 79° East 419 482 39,000  Level Minneapolis Center
09:19PM 41.9042 -94.6597 79° East 421 484 39,000  Level Minneapolis Center
09:20PM 41.9258 -94.5033 79° East 425 489 39,000  Level Minneapolis Center
09:21PM 41.9481 -94.3494 79° East 422 486 39,000  Level Minneapolis Center
09:22PM 41.9703 -94.1919 79° East 428 493 39,000  Level Minneapolis Center
09:23PM 41.9925 -94.0358 79° East 426 490 39,000  Level Minneapolis Center
09:24PM 42.0156 -93.8664 80° East 427 491 39,000  Level Minneapolis Center
09:25PM 42.0369 -93.7103 79° East 428 493 39,000  Level Minneapolis Center
09:26PM 42.0581 -93.5575 79° East 422 486 39,000  Level Minneapolis Center
09:27PM 42.0775 -93.4047 80° East 419 482 39,000  Level Minneapolis Center
09:28PM 42.0983 -93.2506 80° East 420 483 39,000  Level Minneapolis Center
09:29PM 42.1181 -93.0992 80° East 417 480 39,000  Level Minneapolis Center
09:30PM 42.1381 -92.9478 80° East 416 479 39,000  Level Minneapolis Center
09:31PM 42.1561 -92.7972 81° East 413 475 39,000  Level Minneapolis Center
09:32PM 42.1758 -92.6475 80° East 411 473 39,000 -600 Level Minneapolis Center
09:33PM 42.1939 -92.4967 81° East 411 473 37,900 -1,320 Descending Minneapolis Center
09:34PM 42.2142 -92.3417 80° East 419 482 36,400 -1,680 Descending Minneapolis Center
09:35PM 42.2364 -92.1561 81° East 423 487 34,600 -1,620 Descending Minneapolis Center
09:36PM 42.2547 -92.0006 81° East 425 489 33,200 -840 Descending Minneapolis Center
09:37PM 42.2736 -91.8450 81° East 425 489 33,000 -120 Descending Minneapolis Center
09:38PM 42.2917 -91.6864 81° East 431 496 33,000  Level Minneapolis Center
09:39PM 42.3103 -91.5269 81° East 435 501 33,000  Level Minneapolis Center
09:40PM 42.3283 -91.3650 81° East 441 507 33,000  Level Minneapolis Center
09:41PM 42.3461 -91.2053 81° East 439 505 33,000  Level Minneapolis Center
09:42PM 42.3678 -91.0103 81° East 442 509 33,000  Level Minneapolis Center
09:43PM 42.3892 -90.8167 81° East 442 509 33,000  Level Chicago Center
09:44PM 42.4067 -90.6556 82° East 440 506 33,000 -1,080 Level Chicago Center
09:45PM 42.4231 -90.4906 82° East 445 512 30,900 -2,100 Descending Chicago Center
09:46PM 42.4289 -90.3264 87° East 443 510 28,800 -2,160 Descending Chicago Center
09:47PM 42.4236 -90.1603 92° East 447 514 26,600 -2,220 Descending Chicago Center
09:48PM 42.4206 -90.0003 91° East 436 502 24,400 -2,340 Descending Chicago Center
09:49PM 42.4169 -89.8222 92° East 419 482 21,900 -2,340 Descending Chicago Center
09:50PM 42.4125 -89.6675 92° East 414 476 19,700 -2,160 Descending Chicago Center
09:51PM 42.4083 -89.5231 92° East 392 451 17,600 -2,160 Descending Chicago Center
09:52PM 42.4044 -89.3889 92° East 365 420 15,400 -2,280 Descending Chicago Center
09:53PM 42.4008 -89.2600 92° East 345 397 13,100 -2,220 Descending Chicago Center
09:54PM 42.3961 -89.1306 93° East 345 397 10,900 -1,560 Descending Chicago Center
09:55PM 42.3914 -89.0061 93° East 334 384 10,000 -480 Descending Chicago Center
09:56PM 42.3892 -88.8858 91° East 325 374 10,000  Level Chicago Center
09:57PM 42.3839 -88.7642 93° East 324 373 10,000  Level Chicago Center
09:58PM 42.3797 -88.6481 93° East 313 360 10,000 -60 Level Chicago Center
09:59PM 42.3531 -88.5500 110° East 301 346 9,900 -1,140 Descending Chicago Center
10:00PM 42.2872 -88.4986 150° Southeast 267 307 7,800 -1,500 Descending Chicago Center
10:01PM 42.2278 -88.4511 149° Southeast 255 293 6,900 -1,080 Descending Chicago Center
10:02PM 42.1756 -88.4078 148° Southeast 229 264 5,700 -960 Descending Chicago Center
10:03PM 42.1264 -88.3700 150° Southeast 211 243 5,000 -360 Descending Chicago Center
10:04PM 42.0828 -88.3367 150° Southeast 190 219 5,000  Level Chicago Center
10:05PM 42.0392 -88.3053 152° Southeast 181 208 5,000  Level Chicago Center
10:06PM 41.9869 -88.2672 152° Southeast 179 206 5,000 -540 Level Chicago Center
10:07PM 41.9664 -88.2106 116° Southeast 173 199 4,000 -600 Descending Chicago Center
10:08PM 41.9681 -88.1425 88° East 182 209 3,800 -240 Descending Chicago Center